Terminal Aerodrome Forecast
Issued by NWS

Current Version | Previous Version | Text Only | Print | Product List | Glossary On
Versions: 1 2 3 4 5 6 7 8 9 10 11 12 13 14 15 16 17 18 19
000
FTUS46 KMTR 311735
TAFSNS
TAF
KSNS 311735Z 3118/0118 26006KT P6SM BKN007 BKN200
     FM311830 29007KT P6SM SCT010 SCT200
     FM312100 28013KT P6SM FEW200
     FM010300 28008KT P6SM OVC007
     FM011200 28003KT P6SM OVC005
     FM011700 28005KT P6SM BKN009=

USA.gov is the U.S. government's official web portal to all federal, state and local government web resources and services.